createdAt,value
2023-04-21T00:02:16.007Z,3.90
2023-04-21T00:04:45.742Z,4.80
2023-04-21T00:07:14.665Z,4.47
2023-04-21T00:09:42.839Z,5.97
2023-04-21T00:12:10.912Z,4.35
2023-04-21T00:14:39.982Z,5.15
2023-04-21T00:17:08.002Z,2.95
2023-04-21T00:19:37.347Z,4.32
2023-04-21T00:22:08.351Z,5.28
2023-04-21T00:24:36.353Z,2.80
2023-04-21T00:27:04.611Z,3.30
2023-04-21T00:29:32.665Z,5.95
2023-04-21T00:32:01.958Z,2.97
2023-04-21T00:34:29.995Z,5.88
2023-04-21T00:36:59.330Z,4.50
2023-04-21T00:39:27.379Z,4.32
2023-04-21T00:41:55.383Z,4.90
2023-04-21T00:44:23.375Z,5.25
2023-04-21T00:46:51.385Z,2.88
2023-04-21T00:49:19.574Z,4.60
2023-04-21T00:51:47.713Z,4.32
2023-04-21T00:54:18.443Z,3.72
2023-04-21T00:56:46.484Z,6.13
2023-04-21T00:59:14.491Z,5.40
2023-04-21T01:01:42.517Z,4.38
2023-04-21T01:04:11.297Z,3.15
2023-04-21T01:06:39.771Z,5.10
2023-04-21T01:09:07.809Z,4.40
2023-04-21T01:11:37.237Z,4.90
2023-04-21T01:14:05.439Z,3.55
2023-04-21T01:16:34.422Z,2.53
2023-04-21T01:19:05.186Z,4.05
2023-04-21T01:21:41.511Z,3.78
2023-04-21T01:24:09.636Z,4.35
2023-04-21T01:26:40.617Z,4.43
2023-04-21T01:29:08.631Z,2.63
2023-04-21T01:31:36.753Z,4.75
2023-04-21T01:34:05.343Z,4.18
2023-04-21T01:36:45.380Z,2.88
2023-04-21T01:39:47.514Z,3.83
2023-04-21T01:45:36.365Z,3.10
2023-04-21T01:48:04.672Z,3.35
2023-04-21T01:50:32.685Z,2.75
2023-04-21T01:53:02.118Z,3.45
2023-04-21T01:55:30.749Z,5.22
2023-04-21T01:57:59.408Z,3.70
2023-04-21T02:00:27.559Z,3.20
2023-04-21T02:02:55.668Z,3.28
2023-04-21T02:05:23.813Z,3.97
2023-04-21T02:07:51.851Z,4.15
2023-04-21T02:10:21.256Z,3.80
2023-04-21T02:12:49.238Z,3.90
2023-04-21T02:15:17.260Z,3.20
2023-04-21T02:17:45.325Z,5.35
2023-04-21T02:20:13.562Z,4.05
2023-04-21T02:22:41.752Z,4.18
2023-04-21T02:25:10.369Z,3.83
2023-04-21T02:27:39.731Z,4.22
2023-04-21T02:30:11.154Z,3.70
2023-04-21T02:32:39.232Z,3.55
2023-04-21T02:35:07.957Z,3.85
2023-04-21T02:37:37.378Z,3.60
2023-04-21T02:40:06.570Z,3.65
2023-04-21T02:42:34.996Z,4.38
2023-04-21T02:45:04.760Z,8.60
2023-04-21T02:47:32.838Z,3.97
2023-04-21T02:50:00.832Z,2.72
2023-04-21T02:52:28.936Z,2.90
2023-04-21T02:54:56.936Z,4.68
2023-04-21T02:57:24.922Z,4.47
2023-04-21T02:59:52.935Z,2.55
2023-04-21T03:02:22.549Z,2.63
2023-04-21T03:04:51.067Z,4.55
2023-04-21T03:07:19.076Z,3.83
2023-04-21T03:09:47.066Z,4.30
2023-04-21T03:12:15.138Z,3.80
2023-04-21T03:14:43.144Z,3.53
2023-04-21T03:17:11.160Z,3.70
2023-04-21T03:19:40.520Z,3.85
2023-04-21T03:22:08.594Z,2.63
2023-04-21T03:24:36.593Z,3.88
2023-04-21T03:27:06.359Z,4.35
2023-04-21T03:29:34.353Z,4.88
2023-04-21T03:32:02.399Z,3.88
2023-04-21T03:34:30.472Z,3.10
2023-04-21T03:36:59.847Z,4.57
2023-04-21T03:39:27.842Z,4.35
2023-04-21T03:41:55.827Z,3.03
2023-04-21T03:44:26.597Z,3.38
2023-04-21T03:46:54.946Z,3.25
2023-04-21T03:49:23.239Z,3.22
2023-04-21T03:51:51.339Z,3.67
2023-04-21T03:54:20.811Z,5.82
2023-04-21T03:56:48.826Z,3.25
2023-04-21T03:59:17.100Z,4.18
2023-04-21T04:01:45.574Z,4.03
2023-04-21T04:04:13.842Z,3.72
2023-04-21T04:06:42.082Z,3.78
2023-04-21T04:09:10.116Z,3.03
2023-04-21T04:11:39.504Z,4.95
2023-04-21T04:14:07.550Z,2.72
2023-04-21T04:16:35.755Z,4.13
2023-04-21T04:19:04.177Z,2.85
2023-04-21T04:21:32.547Z,3.45
2023-04-21T04:24:02.348Z,5.07
2023-04-21T04:26:30.520Z,4.80
2023-04-21T04:29:00.427Z,4.18
2023-04-21T04:31:29.316Z,4.13
2023-04-21T04:33:57.419Z,4.25
2023-04-21T04:36:25.922Z,3.85
2023-04-21T04:38:53.934Z,3.13
2023-04-21T04:41:22.589Z,4.13
2023-04-21T04:43:51.180Z,3.75
2023-04-21T04:46:20.882Z,5.05
2023-04-21T04:48:49.233Z,4.25
2023-04-21T04:51:18.096Z,3.95
2023-04-21T04:53:46.127Z,3.10
2023-04-21T04:56:14.166Z,2.53
2023-04-21T04:58:42.240Z,3.53
2023-04-21T05:01:14.244Z,3.88
2023-04-21T05:03:44.092Z,5.97
2023-04-21T05:06:13.985Z,4.93
2023-04-21T05:08:42.419Z,3.97
2023-04-21T05:11:10.506Z,3.30
2023-04-21T05:13:40.073Z,3.85
2023-04-21T05:16:11.372Z,3.95
2023-04-21T05:18:39.526Z,5.07
2023-04-21T05:21:08.992Z,3.78
2023-04-21T05:23:37.018Z,3.72
2023-04-21T05:26:05.241Z,3.40
2023-04-21T05:28:33.435Z,2.90
2023-04-21T05:31:01.510Z,3.55
2023-04-21T05:33:31.987Z,2.92
2023-04-21T05:36:00.121Z,4.45
2023-04-21T05:38:29.635Z,3.78
2023-04-21T05:43:27.860Z,3.63
2023-04-21T05:45:56.111Z,4.13
2023-04-21T05:48:24.552Z,3.45
2023-04-21T05:50:52.754Z,4.43
2023-04-21T05:53:21.001Z,4.55
2023-04-21T05:55:50.799Z,2.97
2023-04-21T05:58:18.970Z,11.02
2023-04-21T06:00:49.039Z,3.15
2023-04-21T06:03:17.505Z,4.72
2023-04-21T06:05:46.154Z,4.40
2023-04-21T06:08:14.624Z,2.75
2023-04-21T06:10:48.997Z,5.93
2023-04-21T06:13:21.036Z,3.67
2023-04-21T06:15:49.398Z,4.75
2023-04-21T06:18:17.566Z,3.70
2023-04-21T06:20:51.672Z,2.90
2023-04-21T06:23:20.144Z,4.45
2023-04-21T06:25:48.392Z,4.00
2023-04-21T06:28:20.748Z,2.35
2023-04-21T06:30:51.435Z,3.95
2023-04-21T06:33:19.608Z,5.07
2023-04-21T06:35:47.986Z,3.00
2023-04-21T06:38:16.350Z,3.92
2023-04-21T06:40:45.038Z,3.53
2023-04-21T06:43:13.619Z,2.33
2023-04-21T06:45:43.690Z,3.35
2023-04-21T06:48:12.558Z,5.93
2023-04-21T06:50:41.384Z,3.72
2023-04-21T06:53:12.130Z,2.90
2023-04-21T06:55:40.240Z,3.90
2023-04-21T06:58:08.323Z,3.30
2023-04-21T07:00:36.885Z,3.40
2023-04-21T07:03:06.843Z,3.60
2023-04-21T07:05:35.354Z,2.95
2023-04-21T07:08:03.499Z,2.88
2023-04-21T07:10:32.110Z,6.03
2023-04-21T07:13:00.145Z,4.72
2023-04-21T07:15:28.158Z,2.67
2023-04-21T07:17:56.259Z,2.70
2023-04-21T07:20:25.970Z,2.63
2023-04-21T07:22:53.970Z,2.28
2023-04-21T07:25:22.180Z,2.67
2023-04-21T07:27:50.189Z,2.58
2023-04-21T07:30:18.364Z,2.17
2023-04-21T07:32:46.516Z,2.55
2023-04-21T07:35:15.098Z,3.45
2023-04-21T07:37:44.575Z,3.28
2023-04-21T07:40:13.212Z,2.70
2023-04-21T07:42:41.328Z,2.88
2023-04-21T07:45:10.240Z,3.35
2023-04-21T07:47:38.412Z,2.85
2023-04-21T07:50:07.698Z,2.50
2023-04-21T07:52:36.023Z,3.20
2023-04-21T07:55:06.342Z,2.95
2023-04-21T07:57:38.406Z,3.55
2023-04-21T08:00:08.003Z,2.67
2023-04-21T08:02:36.258Z,3.15
2023-04-21T08:05:04.770Z,2.40
2023-04-21T08:07:33.243Z,3.30
2023-04-21T08:10:02.715Z,2.78
2023-04-21T08:12:32.269Z,2.38
2023-04-21T08:15:05.793Z,3.33
2023-04-21T08:17:35.288Z,2.97
2023-04-21T08:20:03.899Z,1.80
2023-04-21T08:22:35.891Z,2.00
2023-04-21T08:25:04.500Z,2.35
2023-04-21T08:27:34.222Z,2.42
2023-04-21T08:30:02.651Z,2.00
2023-04-21T08:32:31.205Z,1.90
2023-04-21T08:34:59.660Z,2.38
2023-04-21T08:37:29.178Z,3.10
2023-04-21T08:39:57.495Z,1.83
2023-04-21T08:42:25.824Z,3.60
2023-04-21T08:44:56.298Z,3.95
2023-04-21T08:47:26.154Z,2.92
2023-04-21T08:49:54.729Z,1.85
2023-04-21T08:52:22.993Z,3.20
2023-04-21T08:54:53.370Z,3.35
2023-04-21T08:57:21.880Z,3.00
2023-04-21T08:59:50.219Z,3.50
2023-04-21T09:02:20.649Z,3.35
2023-04-21T09:04:51.838Z,3.17
2023-04-21T09:07:36.067Z,2.42
2023-04-21T09:10:05.862Z,6.30
2023-04-21T09:12:34.541Z,8.20
2023-04-21T09:15:06.474Z,3.78
2023-04-21T09:17:37.104Z,3.28
2023-04-21T09:20:17.162Z,2.60
2023-04-21T09:22:45.961Z,2.67
2023-04-21T09:25:18.091Z,3.45
2023-04-21T09:27:47.325Z,2.90
2023-04-21T09:30:19.760Z,3.13
2023-04-21T09:32:49.790Z,4.28
2023-04-21T09:35:18.362Z,3.58
2023-04-21T09:37:46.778Z,2.50
2023-04-21T09:40:16.183Z,2.97
2023-04-21T09:42:45.079Z,3.05
2023-04-21T09:47:51.536Z,3.70
2023-04-21T09:50:44.740Z,3.17
2023-04-21T09:53:15.263Z,2.33
2023-04-21T09:55:44.460Z,3.60
2023-04-21T09:58:15.543Z,2.35
2023-04-21T10:00:44.700Z,2.83
2023-04-21T10:03:14.423Z,2.97
2023-04-21T10:05:44.833Z,3.08
2023-04-21T10:08:13.459Z,2.85
2023-04-21T10:10:42.242Z,2.85
2023-04-21T10:13:18.542Z,2.47
2023-04-21T10:15:47.227Z,3.10
2023-04-21T10:18:18.013Z,2.70
2023-04-21T10:20:55.127Z,2.50
2023-04-21T10:23:34.239Z,2.50
2023-04-21T10:26:07.977Z,2.55
2023-04-21T10:28:48.070Z,3.38
2023-04-21T10:31:20.741Z,2.97
2023-04-21T10:34:28.779Z,4.25
2023-04-21T10:37:19.636Z,2.63
2023-04-21T10:39:54.678Z,2.38
2023-04-21T10:42:26.373Z,2.75
2023-04-21T10:45:02.744Z,3.67
2023-04-21T10:47:37.169Z,2.08
2023-04-21T10:50:23.089Z,2.80
2023-04-21T10:52:58.134Z,2.70
2023-04-21T10:55:30.867Z,2.17
2023-04-21T10:58:03.111Z,2.40
2023-04-21T11:00:31.420Z,1.70
2023-04-21T11:03:02.910Z,3.40
2023-04-21T11:05:38.671Z,2.25
2023-04-21T11:08:14.101Z,2.38
2023-04-21T11:10:52.938Z,2.25
2023-04-21T11:13:26.204Z,1.77
2023-04-21T11:15:58.915Z,1.92
2023-04-21T11:18:43.744Z,2.20
2023-04-21T11:21:18.235Z,2.35
2023-04-21T11:23:53.188Z,2.22
2023-04-21T11:26:31.798Z,2.20
2023-04-21T11:29:03.005Z,3.15
2023-04-21T11:31:31.444Z,3.35
2023-04-21T11:34:01.336Z,2.08
2023-04-21T11:36:29.892Z,2.67
2023-04-21T11:38:59.547Z,2.30
2023-04-21T11:41:28.043Z,2.22
2023-04-21T11:43:56.217Z,2.00
2023-04-21T11:46:26.584Z,2.58
2023-04-21T11:49:02.329Z,2.03
2023-04-21T11:51:34.826Z,2.50
2023-04-21T11:54:06.814Z,2.38
2023-04-21T11:56:37.931Z,1.55
2023-04-21T11:59:09.418Z,1.30
2023-04-21T12:01:44.468Z,1.50
2023-04-21T12:04:17.060Z,1.65
2023-04-21T12:06:46.351Z,2.28
2023-04-21T12:09:20.842Z,2.58
2023-04-21T12:11:51.157Z,1.52
2023-04-21T12:14:20.931Z,1.10
2023-04-21T12:16:51.369Z,2.25
2023-04-21T12:19:35.681Z,1.90
2023-04-21T12:22:07.983Z,2.00
2023-04-21T12:24:37.824Z,1.95
2023-04-21T12:27:07.198Z,1.77
2023-04-21T12:29:37.525Z,1.65
2023-04-21T12:32:06.396Z,1.48
2023-04-21T12:34:35.115Z,2.03
2023-04-21T12:37:04.156Z,1.10
2023-04-21T12:39:32.480Z,1.35
2023-04-21T12:42:02.755Z,3.63
2023-04-21T12:44:31.428Z,1.50
2023-04-21T12:46:59.860Z,3.13
2023-04-21T12:49:28.335Z,1.13
2023-04-21T12:51:56.723Z,1.38
2023-04-21T12:54:25.158Z,1.30
2023-04-21T12:56:53.438Z,1.73
2023-04-21T12:59:23.351Z,1.20
2023-04-21T13:01:52.432Z,1.30
2023-04-21T13:04:20.996Z,1.30
2023-04-21T13:06:49.604Z,1.30
2023-04-21T13:09:18.211Z,1.30
2023-04-21T13:11:46.792Z,1.60
2023-04-21T13:14:15.984Z,1.65
2023-04-21T13:16:45.674Z,1.45
2023-04-21T13:19:13.889Z,1.52
2023-04-21T13:21:42.363Z,2.50
2023-04-21T13:24:14.300Z,1.30
2023-04-21T13:26:43.126Z,1.52
2023-04-21T13:29:11.377Z,1.38
2023-04-21T13:31:39.713Z,1.50
2023-04-21T13:34:09.529Z,1.45
2023-04-21T13:36:37.901Z,1.35
2023-04-21T13:39:10.450Z,6.32
2023-04-21T13:41:38.803Z,2.13
2023-04-21T13:44:07.088Z,2.15
2023-04-21T13:46:35.585Z,1.65
2023-04-21T13:49:04.037Z,1.40
2023-04-21T13:51:33.802Z,1.40
2023-04-21T13:54:02.080Z,1.50
2023-04-21T13:56:30.402Z,1.30
2023-04-21T13:58:59.355Z,2.05
2023-04-21T14:01:27.922Z,1.83
2023-04-21T14:03:57.518Z,1.60
2023-04-21T14:06:26.771Z,1.30
2023-04-21T14:08:56.998Z,2.17
2023-04-21T14:11:25.163Z,1.80
2023-04-21T14:14:08.450Z,2.38
2023-04-21T14:16:37.780Z,1.60
2023-04-21T14:19:06.176Z,1.58
2023-04-21T14:21:34.754Z,1.90
2023-04-21T14:24:04.396Z,1.83
2023-04-21T14:26:32.719Z,2.13
2023-04-21T14:29:01.632Z,1.60
2023-04-21T14:31:30.394Z,2.17
2023-04-21T14:33:58.668Z,1.75
2023-04-21T14:36:28.041Z,1.98
2023-04-21T14:38:56.571Z,1.83
2023-04-21T14:41:26.227Z,2.40
2023-04-21T14:43:56.645Z,1.58
2023-04-21T14:46:24.985Z,2.60
2023-04-21T14:48:53.371Z,1.33
2023-04-21T14:51:21.773Z,1.23
2023-04-21T14:53:50.545Z,1.45
2023-04-21T14:56:19.472Z,1.45
2023-04-21T14:58:48.957Z,2.55
2023-04-21T15:01:17.143Z,1.40
2023-04-21T15:03:45.491Z,1.45
2023-04-21T15:06:13.827Z,1.42
2023-04-21T15:08:42.155Z,1.55
2023-04-21T15:11:10.402Z,1.30
2023-04-21T15:13:38.769Z,1.45
2023-04-21T15:16:08.966Z,1.45
2023-04-21T15:18:37.104Z,1.50
2023-04-21T15:21:05.649Z,1.40
2023-04-21T15:23:35.789Z,1.55
2023-04-21T15:26:04.688Z,1.42
2023-04-21T15:28:32.915Z,1.45
2023-04-21T15:31:01.282Z,1.17
2023-04-21T15:33:30.988Z,2.70
2023-04-21T15:35:59.199Z,1.38
2023-04-21T15:38:27.814Z,2.90
2023-04-21T15:41:01.191Z,0.95
2023-04-21T15:43:30.397Z,2.40
2023-04-21T15:45:58.665Z,1.50
2023-04-21T15:48:26.874Z,1.38
2023-04-21T15:50:57.331Z,1.40
2023-04-21T15:53:26.006Z,1.20
2023-04-21T15:55:54.130Z,1.38
2023-04-21T15:58:22.324Z,1.25
2023-04-21T16:00:50.534Z,1.35
2023-04-21T16:03:18.815Z,1.48
2023-04-21T16:05:47.299Z,1.20
2023-04-21T16:08:17.131Z,1.20
2023-04-21T16:10:45.544Z,1.20
2023-04-21T16:13:13.902Z,1.15
2023-04-21T16:15:42.184Z,1.33
2023-04-21T16:18:10.538Z,2.92
2023-04-21T16:20:39.420Z,0.98
2023-04-21T16:23:07.565Z,1.63
2023-04-21T16:25:37.325Z,1.40
2023-04-21T16:28:06.530Z,3.17
2023-04-21T16:30:35.987Z,1.65
2023-04-21T16:33:04.228Z,1.20
2023-04-21T16:35:32.672Z,1.27
2023-04-21T16:38:01.029Z,1.10
2023-04-21T16:40:29.253Z,1.60
2023-04-21T16:42:58.681Z,0.88
2023-04-21T16:45:26.858Z,1.42
2023-04-21T16:47:55.158Z,1.27
2023-04-21T16:50:23.659Z,0.95
2023-04-21T16:52:51.830Z,1.60
2023-04-21T16:55:20.888Z,2.40
2023-04-21T16:57:50.870Z,1.08
2023-04-21T17:00:22.122Z,3.42
2023-04-21T17:02:50.598Z,1.90
2023-04-21T17:05:19.493Z,1.20
2023-04-21T17:07:48.424Z,0.95
2023-04-21T17:10:16.991Z,0.82
2023-04-21T17:12:46.878Z,0.85
2023-04-21T17:15:15.391Z,1.58
2023-04-21T17:17:47.157Z,1.42
2023-04-21T17:20:16.165Z,2.00
2023-04-21T17:22:44.376Z,1.30
2023-04-21T17:25:12.822Z,1.00
2023-04-21T17:27:41.714Z,1.20
2023-04-21T17:30:10.936Z,1.20
2023-04-21T17:32:40.545Z,1.00
2023-04-21T17:35:10.878Z,1.02
2023-04-21T17:37:39.116Z,0.70
2023-04-21T17:40:09.607Z,1.25
2023-04-21T17:42:37.844Z,2.35
2023-04-21T17:45:07.692Z,0.80
2023-04-21T17:47:35.860Z,1.02
2023-04-21T17:50:04.240Z,1.08
2023-04-21T17:52:33.866Z,0.80
2023-04-21T17:55:02.775Z,1.27
2023-04-21T17:57:31.080Z,1.30
2023-04-21T17:59:59.422Z,0.73
2023-04-21T18:02:28.160Z,0.80
2023-04-21T18:04:56.734Z,1.10
2023-04-21T18:07:25.047Z,0.98
2023-04-21T18:09:54.489Z,1.38
2023-04-21T18:12:22.530Z,0.65
2023-04-21T18:14:51.308Z,1.23
2023-04-21T18:17:19.569Z,1.55
2023-04-21T18:19:47.638Z,1.35
2023-04-21T18:22:16.252Z,0.70
2023-04-21T18:24:45.230Z,0.60
2023-04-21T18:27:15.369Z,0.50
2023-04-21T18:29:43.613Z,0.73
2023-04-21T18:32:11.983Z,0.60
2023-04-21T18:34:41.474Z,0.98
2023-04-21T18:37:10.482Z,1.73
2023-04-21T18:39:38.969Z,0.73
2023-04-21T18:42:07.220Z,0.57
2023-04-21T18:44:37.221Z,1.05
2023-04-21T18:47:05.948Z,0.70
2023-04-21T18:49:34.510Z,1.05
2023-04-21T18:52:03.211Z,1.13
2023-04-21T18:54:31.401Z,1.05
2023-04-21T18:56:59.676Z,7.10
2023-04-21T18:59:28.236Z,1.85
2023-04-21T19:01:58.359Z,0.80
2023-04-21T19:04:26.676Z,0.60
2023-04-21T19:06:54.957Z,0.70
2023-04-21T19:09:23.256Z,0.85
2023-04-21T19:11:52.577Z,1.27
2023-04-21T19:14:20.890Z,0.52
2023-04-21T19:16:49.630Z,0.70
2023-04-21T19:19:20.092Z,1.15
2023-04-21T19:21:49.357Z,0.98
2023-04-21T19:24:17.868Z,0.70
2023-04-21T19:26:46.863Z,1.42
2023-04-21T19:29:15.109Z,0.65
2023-04-21T19:31:43.691Z,0.70
2023-04-21T19:34:12.006Z,1.92
2023-04-21T19:36:42.174Z,0.50
2023-04-21T19:39:10.471Z,0.73
2023-04-21T19:41:38.633Z,0.70
2023-04-21T19:44:06.872Z,1.10
2023-04-21T19:46:35.266Z,0.98
2023-04-21T19:49:03.587Z,0.73
2023-04-21T19:51:32.774Z,0.75
2023-04-21T19:54:10.740Z,0.98
2023-04-21T19:56:40.789Z,0.95
2023-04-21T19:59:09.642Z,5.07
2023-04-21T20:04:07.857Z,0.80
2023-04-21T20:06:37.379Z,0.60
2023-04-21T20:09:07.098Z,1.13
2023-04-21T20:11:35.258Z,0.85
2023-04-21T20:14:03.415Z,0.65
2023-04-21T20:16:32.885Z,0.70
2023-04-21T20:19:01.138Z,0.60
2023-04-21T20:21:29.238Z,0.73
2023-04-21T20:23:57.310Z,1.52
2023-04-21T20:26:26.818Z,0.60
2023-04-21T20:28:54.961Z,0.95
2023-04-21T20:31:25.511Z,0.98
2023-04-21T20:33:53.765Z,1.50
2023-04-21T20:36:22.283Z,1.08
2023-04-21T20:38:50.591Z,1.10
2023-04-21T20:41:18.747Z,0.82
2023-04-21T20:43:48.737Z,0.50
2023-04-21T20:46:17.647Z,0.85
2023-04-21T20:48:45.812Z,0.68
2023-04-21T20:51:14.574Z,1.02
2023-04-21T20:53:42.656Z,0.80
2023-04-21T20:56:10.811Z,0.88
2023-04-21T20:58:39.182Z,1.08
2023-04-21T21:01:08.717Z,1.20
2023-04-21T21:03:37.158Z,0.77
2023-04-21T21:06:06.322Z,0.60
2023-04-21T21:08:35.588Z,0.93
2023-04-21T21:11:03.696Z,0.70
2023-04-21T21:13:31.853Z,1.10
2023-04-21T21:16:00.009Z,1.10
2023-04-21T21:18:34.420Z,0.98
2023-04-21T21:21:02.569Z,0.80
2023-04-21T21:23:32.797Z,1.00
2023-04-21T21:26:01.505Z,2.78
2023-04-21T21:28:30.420Z,0.98
2023-04-21T21:30:58.493Z,0.93
2023-04-21T21:33:26.774Z,0.93
2023-04-21T21:35:56.360Z,0.65
2023-04-21T21:38:24.441Z,1.20
2023-04-21T21:40:52.597Z,1.35
2023-04-21T21:43:20.662Z,0.73
2023-04-21T21:45:49.104Z,1.48
2023-04-21T21:48:17.415Z,0.60
2023-04-21T21:50:45.555Z,0.90
2023-04-21T21:53:15.027Z,1.33
2023-04-21T21:55:43.119Z,1.40
2023-04-21T21:58:11.224Z,0.93
2023-04-21T22:00:39.617Z,0.75
2023-04-21T22:03:08.101Z,0.80
2023-04-21T22:05:36.576Z,1.13
2023-04-21T22:08:04.782Z,0.63
2023-04-21T22:10:34.442Z,1.13
2023-04-21T22:13:02.762Z,1.17
2023-04-21T22:15:30.804Z,1.00
2023-04-21T22:17:58.973Z,0.80
2023-04-21T22:20:28.157Z,1.10
2023-04-21T22:22:56.595Z,0.70
2023-04-21T22:25:27.039Z,1.80
2023-04-21T22:27:57.709Z,0.70
2023-04-21T22:30:26.041Z,1.08
2023-04-21T22:32:54.379Z,1.45
2023-04-21T22:35:22.484Z,0.85
2023-04-21T22:37:50.536Z,1.15
2023-04-21T22:40:18.688Z,1.13
2023-04-21T22:42:46.865Z,0.70
2023-04-21T22:45:16.431Z,1.10
2023-04-21T22:47:44.523Z,0.80
2023-04-21T22:50:14.878Z,0.93
2023-04-21T22:52:43.136Z,1.17
2023-04-21T22:55:11.671Z,1.30
2023-04-21T22:57:39.818Z,0.90
2023-04-21T23:00:09.878Z,1.30
2023-04-21T23:02:39.597Z,2.63
2023-04-21T23:05:08.480Z,0.80
2023-04-21T23:07:36.678Z,1.25
2023-04-21T23:10:05.700Z,2.05
2023-04-21T23:12:33.778Z,0.77
2023-04-21T23:15:01.855Z,1.42
2023-04-21T23:17:29.882Z,0.90
2023-04-21T23:20:02.159Z,1.17
2023-04-21T23:22:30.258Z,1.40
2023-04-21T23:24:58.561Z,1.13
2023-04-21T23:27:26.540Z,1.13
2023-04-21T23:29:54.578Z,1.38
2023-04-21T23:32:22.661Z,0.82
2023-04-21T23:34:50.690Z,1.85
2023-04-21T23:37:20.377Z,0.75
2023-04-21T23:39:48.411Z,1.15
2023-04-21T23:42:16.488Z,1.02
2023-04-21T23:44:44.517Z,0.80
2023-04-21T23:47:12.485Z,1.25
2023-04-21T23:49:40.637Z,0.98
2023-04-21T23:52:08.802Z,1.20
2023-04-21T23:54:38.188Z,1.33
2023-04-21T23:57:06.234Z,3.20
2023-04-21T23:59:34.280Z,1.35
